createdAt,value
2022-09-06T00:01:23.279Z,29.15
2022-09-06T00:03:51.211Z,28.88
2022-09-06T00:06:20.218Z,28.90
2022-09-06T00:08:48.376Z,29.38
2022-09-06T00:11:15.982Z,32.00
2022-09-06T00:13:42.788Z,29.08
2022-09-06T00:16:12.280Z,28.80
2022-09-06T00:18:39.422Z,28.08
2022-09-06T00:21:17.912Z,29.05
2022-09-06T00:23:44.386Z,27.92
2022-09-06T00:26:10.812Z,28.20
2022-09-06T00:28:38.098Z,29.02
2022-09-06T00:31:16.375Z,29.23
2022-09-06T00:33:43.903Z,30.10
2022-09-06T00:36:12.201Z,31.27
2022-09-06T00:38:39.557Z,29.50
2022-09-06T00:41:08.049Z,29.10
2022-09-06T00:43:34.635Z,30.42
2022-09-06T00:46:03.347Z,30.67
2022-09-06T00:48:30.433Z,29.48
2022-09-06T00:51:00.800Z,30.33
2022-09-06T00:53:28.108Z,32.13
2022-09-06T00:55:55.636Z,32.75
2022-09-06T00:58:22.621Z,31.77
2022-09-06T01:00:49.110Z,32.40
2022-09-06T01:03:15.611Z,32.15
2022-09-06T01:06:01.387Z,35.58
2022-09-06T01:08:47.315Z,32.95
2022-09-06T01:11:27.404Z,31.27
2022-09-06T01:14:18.795Z,31.48
2022-09-06T01:17:16.630Z,30.33
2022-09-06T01:19:45.796Z,32.28
2022-09-06T01:22:19.629Z,31.63
2022-09-06T01:24:55.137Z,30.88
2022-09-06T01:27:33.838Z,33.22
2022-09-06T01:30:13.089Z,32.42
2022-09-06T01:33:07.459Z,32.38
2022-09-06T01:35:40.220Z,31.63
2022-09-06T01:38:08.039Z,31.95
2022-09-06T01:40:36.423Z,30.13
2022-09-06T01:43:10.637Z,31.13
2022-09-06T01:45:57.003Z,31.10
2022-09-06T01:48:48.236Z,29.48
2022-09-06T01:51:32.161Z,30.10
2022-09-06T01:54:16.580Z,30.80
2022-09-06T01:56:55.753Z,28.80
2022-09-06T01:59:33.969Z,29.15
2022-09-06T02:02:08.000Z,29.88
2022-09-06T02:04:47.248Z,32.50
2022-09-06T02:07:27.678Z,30.25
2022-09-06T02:10:00.388Z,28.50
2022-09-06T02:12:30.572Z,29.35
2022-09-06T02:15:03.068Z,27.98
2022-09-06T02:17:37.339Z,29.40
2022-09-06T02:20:13.012Z,27.98
2022-09-06T02:22:43.752Z,28.90
2022-09-06T02:25:15.741Z,28.38
2022-09-06T02:27:42.260Z,27.77
2022-09-06T02:30:09.233Z,29.27
2022-09-06T02:32:43.009Z,30.10
2022-09-06T02:35:14.612Z,28.48
2022-09-06T02:37:41.897Z,29.02
2022-09-06T02:40:10.235Z,27.70
2022-09-06T02:42:36.752Z,29.00
2022-09-06T02:45:05.113Z,30.52
2022-09-06T02:47:31.582Z,31.90
2022-09-06T02:49:58.089Z,30.63
2022-09-06T02:52:24.632Z,29.17
2022-09-06T02:54:51.701Z,28.05
2022-09-06T02:57:18.209Z,31.30
2022-09-06T02:59:45.943Z,28.30
2022-09-06T03:02:12.474Z,29.80
2022-09-06T03:04:39.007Z,28.52
2022-09-06T03:07:05.448Z,29.80
2022-09-06T03:09:31.909Z,29.05
2022-09-06T03:11:58.403Z,32.22
2022-09-06T03:14:24.816Z,29.85
2022-09-06T03:16:51.366Z,30.20
2022-09-06T03:19:18.038Z,30.52
2022-09-06T03:21:44.480Z,30.02
2022-09-06T03:24:10.962Z,31.83
2022-09-06T03:26:37.393Z,30.83
2022-09-06T03:29:03.876Z,30.15
2022-09-06T03:31:30.335Z,31.73
2022-09-06T03:33:56.833Z,32.20
2022-09-06T03:36:23.360Z,30.23
2022-09-06T03:38:51.127Z,28.63
2022-09-06T03:41:17.562Z,31.02
2022-09-06T03:43:44.002Z,33.88
2022-09-06T03:46:10.488Z,30.92
2022-09-06T03:48:36.936Z,31.27
2022-09-06T03:51:03.407Z,31.70
2022-09-06T03:53:30.072Z,31.30
2022-09-06T03:56:00.164Z,33.30
2022-09-06T03:58:30.925Z,33.75
2022-09-06T04:05:54.911Z,31.27
2022-09-06T04:08:21.445Z,29.77
2022-09-06T04:10:51.317Z,32.63
2022-09-06T04:13:18.122Z,31.05
2022-09-06T04:15:48.184Z,35.42
2022-09-06T04:18:15.729Z,34.20
2022-09-06T04:20:42.505Z,34.40
2022-09-06T04:23:09.264Z,30.70
2022-09-06T04:25:35.720Z,31.35
2022-09-06T04:28:02.422Z,32.53
2022-09-06T04:30:28.962Z,32.00
2022-09-06T04:32:55.407Z,34.13
2022-09-06T04:35:21.890Z,33.80
2022-09-06T04:37:48.385Z,30.77
2022-09-06T04:40:15.103Z,31.95
2022-09-06T04:42:41.520Z,32.95
2022-09-06T04:45:08.501Z,32.80
2022-09-06T04:47:34.969Z,33.17
2022-09-06T04:50:01.471Z,34.70
2022-09-06T04:52:30.190Z,32.88
2022-09-06T04:54:57.146Z,30.45
2022-09-06T04:57:23.599Z,31.88
2022-09-06T04:59:50.048Z,32.15
2022-09-06T05:02:16.506Z,34.58
2022-09-06T05:04:42.992Z,33.30
2022-09-06T05:07:09.552Z,34.33
2022-09-06T05:09:36.773Z,34.97
2022-09-06T05:12:03.593Z,35.38
2022-09-06T05:14:30.050Z,33.08
2022-09-06T05:16:56.635Z,33.35
2022-09-06T05:19:23.124Z,32.80
2022-09-06T05:21:51.492Z,32.65
2022-09-06T05:24:18.060Z,33.00
2022-09-06T05:26:44.528Z,33.30
2022-09-06T05:29:11.037Z,31.20
2022-09-06T05:31:37.564Z,32.40
2022-09-06T05:34:04.077Z,32.53
2022-09-06T05:36:31.413Z,31.38
2022-09-06T05:38:58.674Z,33.08
2022-09-06T05:41:26.173Z,33.97
2022-09-06T05:43:52.942Z,34.90
2022-09-06T05:46:19.929Z,34.70
2022-09-06T05:49:07.788Z,35.40
2022-09-06T05:51:34.277Z,36.67
2022-09-06T05:54:00.713Z,36.00
2022-09-06T05:56:27.166Z,35.38
2022-09-06T05:58:53.717Z,34.72
2022-09-06T06:01:26.619Z,34.47
2022-09-06T06:04:04.987Z,37.42
2022-09-06T06:06:33.293Z,35.22
2022-09-06T06:09:00.477Z,34.85
2022-09-06T06:11:27.787Z,37.33
2022-09-06T06:13:54.429Z,33.70
2022-09-06T06:16:22.546Z,35.42
2022-09-06T06:18:52.344Z,32.33
2022-09-06T06:21:23.185Z,29.67
2022-09-06T06:23:52.349Z,29.58
2022-09-06T06:26:19.721Z,22.75
2022-09-06T06:28:46.587Z,18.15
2022-09-06T06:31:13.172Z,31.23
2022-09-06T06:33:39.949Z,29.90
2022-09-06T06:36:07.769Z,29.10
2022-09-06T06:38:37.592Z,29.85
2022-09-06T06:41:07.276Z,33.78
2022-09-06T06:43:38.048Z,26.65
2022-09-06T06:48:43.642Z,29.35
2022-09-06T06:51:12.320Z,26.30
2022-09-06T06:53:38.911Z,27.77
2022-09-06T06:56:15.512Z,31.30
2022-09-06T06:58:42.654Z,30.00
2022-09-06T07:01:10.160Z,29.60
2022-09-06T07:03:36.785Z,31.40
2022-09-06T07:06:12.267Z,27.80
2022-09-06T07:08:40.341Z,29.35
2022-09-06T07:11:08.102Z,28.77
2022-09-06T07:13:34.638Z,26.15
2022-09-06T07:16:13.479Z,28.15
2022-09-06T07:18:42.273Z,25.65
2022-09-06T07:24:06.816Z,25.13
2022-09-06T07:26:35.992Z,27.27
2022-09-06T07:29:04.523Z,22.88
2022-09-06T07:34:19.249Z,23.20
2022-09-06T07:36:45.752Z,20.40
2022-09-06T07:39:12.206Z,21.00
2022-09-06T07:41:38.663Z,21.70
2022-09-06T07:44:05.110Z,23.65
2022-09-06T07:46:31.629Z,24.98
2022-09-06T07:48:58.203Z,21.48
2022-09-06T07:51:24.671Z,22.20
2022-09-06T07:54:07.474Z,21.38
2022-09-06T07:56:41.796Z,22.13
2022-09-06T07:59:09.239Z,21.38
2022-09-06T08:01:37.373Z,18.33
2022-09-06T08:04:12.806Z,19.88
2022-09-06T08:09:28.260Z,17.80
2022-09-06T08:11:54.861Z,17.55
2022-09-06T08:14:21.377Z,16.63
2022-09-06T08:16:47.863Z,18.35
2022-09-06T08:19:14.392Z,17.42
2022-09-06T08:21:40.905Z,19.48
2022-09-06T08:24:09.778Z,18.48
2022-09-06T08:26:42.994Z,18.50
2022-09-06T08:29:10.852Z,17.35
2022-09-06T08:31:40.340Z,18.17
2022-09-06T08:34:07.333Z,17.10
2022-09-06T08:36:34.488Z,17.13
2022-09-06T08:39:03.816Z,17.60
2022-09-06T08:41:45.394Z,17.40
2022-09-06T08:47:08.723Z,21.35
2022-09-06T08:49:39.456Z,19.52
2022-09-06T08:52:25.740Z,17.70
2022-09-06T08:55:12.395Z,17.50
2022-09-06T08:58:08.492Z,18.77
2022-09-06T09:00:36.998Z,17.48
2022-09-06T09:03:03.499Z,17.42
2022-09-06T09:05:33.609Z,19.40
2022-09-06T09:08:37.292Z,16.55
2022-09-06T09:11:07.467Z,15.65
2022-09-06T09:13:39.679Z,17.58
2022-09-06T09:16:06.859Z,15.90
2022-09-06T09:18:38.552Z,18.88
2022-09-06T09:21:05.467Z,17.08
2022-09-06T09:23:32.457Z,18.30
2022-09-06T09:26:04.724Z,16.90
2022-09-06T09:28:31.674Z,17.50
2022-09-06T09:30:58.481Z,16.92
2022-09-06T09:33:36.983Z,17.50
2022-09-06T09:36:09.711Z,17.30
2022-09-06T09:38:49.240Z,19.17
2022-09-06T09:41:32.091Z,18.58
2022-09-06T09:44:17.764Z,15.98
2022-09-06T09:46:44.607Z,20.42
2022-09-06T09:49:29.247Z,16.90
2022-09-06T09:52:13.751Z,14.63
2022-09-06T09:54:44.447Z,14.13
2022-09-06T09:57:18.460Z,17.77
2022-09-06T09:59:58.214Z,13.68
2022-09-06T10:02:32.482Z,13.82
2022-09-06T10:05:12.115Z,16.05
2022-09-06T10:07:51.926Z,13.17
2022-09-06T10:10:23.556Z,14.57
2022-09-06T10:13:20.413Z,13.68
2022-09-06T10:15:48.204Z,16.17
2022-09-06T10:18:41.391Z,15.98
2022-09-06T10:21:14.941Z,14.82
2022-09-06T10:24:27.834Z,12.55
2022-09-06T10:27:01.958Z,13.10
2022-09-06T10:29:45.436Z,12.45
2022-09-06T10:32:30.934Z,9.55
2022-09-06T10:35:09.394Z,7.82
2022-09-06T10:37:44.994Z,7.95
2022-09-06T10:40:16.391Z,8.98
2022-09-06T10:42:47.059Z,8.40
2022-09-06T10:45:21.928Z,10.32
2022-09-06T10:48:12.579Z,10.40
2022-09-06T10:51:01.143Z,11.40
2022-09-06T10:53:37.655Z,9.25
2022-09-06T10:56:09.450Z,10.52
2022-09-06T11:02:03.757Z,10.00
2022-09-06T11:07:42.765Z,9.82
2022-09-06T11:10:21.436Z,11.68
2022-09-06T11:13:03.205Z,10.35
2022-09-06T11:15:37.377Z,9.05
2022-09-06T11:18:15.604Z,9.13
2022-09-06T11:20:52.334Z,8.98
2022-09-06T11:23:41.022Z,7.78
2022-09-06T11:26:38.588Z,8.68
2022-09-06T11:29:09.673Z,8.10
2022-09-06T11:32:19.048Z,10.20
2022-09-06T11:34:57.660Z,9.65
2022-09-06T11:37:49.585Z,8.43
2022-09-06T11:40:26.750Z,7.10
2022-09-06T11:42:54.384Z,8.70
2022-09-06T11:45:39.237Z,7.28
2022-09-06T11:48:24.159Z,7.82
2022-09-06T11:50:53.386Z,7.85
2022-09-06T11:53:21.802Z,8.30
2022-09-06T11:55:50.906Z,9.68
2022-09-06T11:58:17.686Z,9.10
2022-09-06T12:00:46.421Z,9.70
2022-09-06T12:06:43.715Z,9.90
2022-09-06T12:09:28.674Z,8.57
2022-09-06T12:11:56.594Z,8.48
2022-09-06T12:14:42.956Z,8.65
2022-09-06T12:17:09.782Z,7.93
2022-09-06T12:20:06.805Z,8.13
2022-09-06T12:22:33.426Z,7.70
2022-09-06T12:25:02.486Z,7.38
2022-09-06T12:27:35.141Z,8.45
2022-09-06T12:30:08.912Z,9.07
2022-09-06T12:32:43.925Z,8.80
2022-09-06T12:38:24.756Z,8.05
2022-09-06T12:40:54.743Z,9.27
2022-09-06T12:43:21.276Z,8.13
2022-09-06T12:45:51.480Z,6.88
2022-09-06T12:51:03.823Z,6.15
2022-09-06T12:53:31.631Z,7.13
2022-09-06T12:56:12.145Z,6.45
2022-09-06T12:58:39.574Z,5.18
2022-09-06T13:01:27.422Z,6.20
2022-09-06T13:03:57.332Z,5.75
2022-09-06T13:06:27.186Z,5.32
2022-09-06T13:08:56.919Z,5.30
2022-09-06T13:11:27.620Z,6.80
2022-09-06T13:13:55.343Z,7.45
2022-09-06T13:16:25.214Z,5.25
2022-09-06T13:18:52.479Z,6.72
2022-09-06T13:21:46.326Z,6.40
2022-09-06T13:24:22.634Z,7.03
2022-09-06T13:26:49.570Z,5.32
2022-09-06T13:29:30.754Z,6.20
2022-09-06T13:31:59.725Z,5.78
2022-09-06T13:34:33.675Z,5.60
2022-09-06T13:37:05.345Z,6.30
2022-09-06T13:39:38.096Z,4.70
2022-09-06T13:42:07.566Z,5.38
2022-09-06T13:44:36.832Z,5.03
2022-09-06T13:47:03.846Z,4.90
2022-09-06T13:49:31.133Z,5.32
2022-09-06T13:52:00.355Z,5.25
2022-09-06T13:54:27.021Z,5.03
2022-09-06T13:56:53.557Z,4.25
2022-09-06T13:59:20.165Z,4.15
2022-09-06T14:01:49.771Z,3.83
2022-09-06T14:04:21.227Z,5.32
2022-09-06T14:06:49.144Z,4.15
2022-09-06T14:09:15.622Z,3.97
2022-09-06T14:11:47.504Z,3.58
2022-09-06T14:14:15.044Z,3.60
2022-09-06T14:16:41.489Z,4.30
2022-09-06T14:19:07.947Z,5.45
2022-09-06T14:21:34.670Z,5.38
2022-09-06T14:24:04.330Z,6.15
2022-09-06T14:26:33.074Z,4.57
2022-09-06T14:28:59.551Z,5.53
2022-09-06T14:31:27.898Z,4.65
2022-09-06T14:33:56.576Z,4.57
2022-09-06T14:36:26.332Z,4.15
2022-09-06T14:38:53.477Z,5.28
2022-09-06T14:41:20.560Z,4.47
2022-09-06T14:43:52.656Z,4.00
2022-09-06T14:46:21.989Z,3.65
2022-09-06T14:48:49.508Z,3.80
2022-09-06T14:51:23.927Z,4.53
2022-09-06T14:53:57.028Z,3.92
2022-09-06T14:56:24.264Z,3.65
2022-09-06T14:58:50.768Z,4.10
2022-09-06T15:01:20.608Z,4.32
2022-09-06T15:03:51.493Z,4.13
2022-09-06T15:06:20.414Z,4.05
2022-09-06T15:08:48.460Z,3.65
2022-09-06T15:11:15.807Z,3.58
2022-09-06T15:13:42.691Z,3.63
2022-09-06T15:16:10.946Z,3.42
2022-09-06T15:18:37.512Z,3.85
2022-09-06T15:21:15.670Z,3.15
2022-09-06T15:23:45.817Z,3.53
2022-09-06T15:28:41.929Z,3.75
2022-09-06T15:31:08.779Z,4.70
2022-09-06T15:33:37.433Z,3.78
2022-09-06T15:36:06.441Z,3.88
2022-09-06T15:38:34.169Z,3.97
2022-09-06T15:41:12.641Z,4.05
2022-09-06T15:43:42.444Z,4.53
2022-09-06T15:46:09.706Z,3.85
2022-09-06T15:48:51.277Z,4.90
2022-09-06T15:51:19.892Z,5.10
2022-09-06T15:53:47.057Z,4.57
2022-09-06T15:56:15.107Z,5.30
2022-09-06T15:58:41.764Z,3.78
2022-09-06T16:01:27.020Z,4.60
2022-09-06T16:04:05.502Z,5.47
2022-09-06T16:06:38.437Z,4.28
2022-09-06T16:09:11.505Z,4.28
2022-09-06T16:11:38.055Z,3.80
2022-09-06T16:14:06.719Z,3.10
2022-09-06T16:16:34.520Z,3.63
2022-09-06T16:19:01.476Z,3.53
2022-09-06T16:21:31.419Z,3.42
2022-09-06T16:24:00.584Z,3.85
2022-09-06T16:26:32.074Z,4.88
2022-09-06T16:28:59.509Z,4.07
2022-09-06T16:31:26.832Z,3.83
2022-09-06T16:33:53.824Z,3.38
2022-09-06T16:36:21.611Z,4.10
2022-09-06T16:38:48.433Z,4.68
2022-09-06T16:41:25.226Z,4.05
2022-09-06T16:43:52.619Z,4.50
2022-09-06T16:46:21.098Z,4.38
2022-09-06T16:48:52.623Z,4.55
2022-09-06T16:51:21.896Z,4.68
2022-09-06T16:53:49.386Z,4.68
2022-09-06T16:56:19.373Z,4.82
2022-09-06T16:58:54.324Z,4.20
2022-09-06T17:01:21.886Z,4.18
2022-09-06T17:03:48.666Z,4.25
2022-09-06T17:06:16.037Z,3.67
2022-09-06T17:08:43.246Z,4.10
2022-09-06T17:11:14.734Z,4.97
2022-09-06T17:13:41.761Z,4.68
2022-09-06T17:16:26.899Z,4.00
2022-09-06T17:18:53.925Z,4.47
2022-09-06T17:21:22.306Z,4.55
2022-09-06T17:23:49.526Z,5.75
2022-09-06T17:26:17.328Z,7.10
2022-09-06T17:28:43.791Z,5.97
2022-09-06T17:31:10.359Z,4.93
2022-09-06T17:33:37.228Z,3.83
2022-09-06T17:36:11.748Z,4.70
2022-09-06T17:38:42.751Z,6.88
2022-09-06T17:41:20.834Z,6.40
2022-09-06T17:43:48.542Z,5.78
2022-09-06T17:46:15.156Z,6.28
2022-09-06T17:48:43.053Z,6.10
2022-09-06T17:51:11.424Z,6.75
2022-09-06T17:53:38.733Z,7.85
2022-09-06T17:56:06.977Z,8.35
2022-09-06T17:58:33.468Z,8.88
2022-09-06T18:01:17.907Z,7.47
2022-09-06T18:03:46.195Z,7.55
2022-09-06T18:06:15.091Z,6.18
2022-09-06T18:08:44.173Z,6.90
2022-09-06T18:11:20.020Z,12.00
2022-09-06T18:13:47.150Z,10.15
2022-09-06T18:16:14.786Z,8.13
2022-09-06T18:18:42.533Z,6.72
2022-09-06T18:21:09.081Z,7.93
2022-09-06T18:23:36.265Z,8.35
2022-09-06T18:26:06.032Z,9.57
2022-09-06T18:28:35.346Z,9.63
2022-09-06T18:31:10.080Z,7.45
2022-09-06T18:33:37.720Z,8.73
2022-09-06T18:36:06.700Z,9.05
2022-09-06T18:38:37.299Z,10.18
2022-09-06T18:41:05.806Z,8.45
2022-09-06T18:43:40.157Z,6.32
2022-09-06T18:46:15.930Z,8.07
2022-09-06T18:48:42.505Z,6.55
2022-09-06T18:51:11.477Z,6.85
2022-09-06T18:53:42.705Z,6.70
2022-09-06T18:56:13.224Z,8.77
2022-09-06T18:58:40.401Z,7.55
2022-09-06T19:01:11.141Z,6.30
2022-09-06T19:03:38.726Z,7.90
2022-09-06T19:06:17.609Z,7.78
2022-09-06T19:08:44.593Z,8.63
2022-09-06T19:11:14.340Z,8.40
2022-09-06T19:13:41.828Z,8.95
2022-09-06T19:16:09.968Z,8.02
2022-09-06T19:18:37.041Z,8.32
2022-09-06T19:21:12.951Z,11.18
2022-09-06T19:23:42.298Z,10.60
2022-09-06T19:26:14.556Z,8.57
2022-09-06T19:28:41.321Z,8.85
2022-09-06T19:31:13.274Z,9.93
2022-09-06T19:33:40.674Z,9.75
2022-09-06T19:36:12.057Z,9.48
2022-09-06T19:39:01.529Z,10.02
2022-09-06T19:41:27.025Z,9.23
2022-09-06T19:43:55.617Z,10.88
2022-09-06T19:46:23.150Z,11.52
2022-09-06T19:48:52.069Z,10.73
2022-09-06T19:51:19.903Z,10.40
2022-09-06T19:53:53.073Z,10.43
2022-09-06T19:56:23.224Z,10.80
2022-09-06T19:58:57.910Z,10.23
2022-09-06T20:01:26.314Z,10.05
2022-09-06T20:03:52.948Z,10.07
2022-09-06T20:06:20.062Z,9.05
2022-09-06T20:08:50.879Z,7.93
2022-09-06T20:11:17.985Z,9.00
2022-09-06T20:13:44.507Z,9.73
2022-09-06T20:16:12.905Z,9.75
2022-09-06T20:18:39.972Z,9.80
2022-09-06T20:21:07.174Z,10.77
2022-09-06T20:23:34.757Z,8.57
2022-09-06T20:26:10.198Z,8.80
2022-09-06T20:28:37.145Z,7.53
2022-09-06T20:31:09.035Z,9.15
2022-09-06T20:33:35.913Z,8.20
2022-09-06T20:36:05.405Z,9.73
2022-09-06T20:38:33.726Z,8.50
2022-09-06T20:41:05.613Z,8.75
2022-09-06T20:43:35.172Z,7.63
2022-09-06T20:46:04.229Z,7.87
2022-09-06T20:48:32.678Z,7.22
2022-09-06T20:51:01.868Z,7.35
2022-09-06T20:53:30.196Z,7.93
2022-09-06T20:55:58.566Z,8.68
2022-09-06T20:58:25.694Z,9.48
2022-09-06T21:00:52.519Z,8.30
2022-09-06T21:03:19.171Z,10.45
2022-09-06T21:05:45.884Z,11.43
2022-09-06T21:08:12.629Z,13.30
2022-09-06T21:10:39.076Z,13.52
2022-09-06T21:13:05.853Z,13.88
2022-09-06T21:15:40.980Z,13.85
2022-09-06T21:18:08.920Z,11.45
2022-09-06T21:20:35.941Z,12.60
2022-09-06T21:23:02.703Z,11.90
2022-09-06T21:25:29.481Z,13.50
2022-09-06T21:27:56.041Z,13.95
2022-09-06T21:30:22.565Z,12.55
2022-09-06T21:32:49.362Z,13.30
2022-09-06T21:35:15.934Z,10.38
2022-09-06T21:37:42.364Z,12.18
2022-09-06T21:40:09.450Z,13.00
2022-09-06T21:42:35.930Z,12.10
2022-09-06T21:45:02.416Z,12.38
2022-09-06T21:47:30.324Z,12.55
2022-09-06T21:49:57.221Z,11.45
2022-09-06T21:52:23.807Z,11.95
2022-09-06T21:54:50.266Z,11.52
2022-09-06T21:57:17.119Z,12.90
2022-09-06T21:59:43.563Z,11.70
2022-09-06T22:02:10.161Z,11.75
2022-09-06T22:04:36.631Z,12.80
2022-09-06T22:07:03.978Z,13.18
2022-09-06T22:09:30.487Z,12.77
2022-09-06T22:11:56.941Z,12.13
2022-09-06T22:14:23.458Z,12.85
2022-09-06T22:16:51.945Z,10.75
2022-09-06T22:19:18.387Z,12.10
2022-09-06T22:21:45.476Z,13.00
2022-09-06T22:24:13.205Z,13.93
2022-09-06T22:26:41.068Z,11.85
2022-09-06T22:29:09.344Z,12.43
2022-09-06T22:31:36.913Z,13.75
2022-09-06T22:34:04.101Z,13.00
2022-09-06T22:36:30.674Z,15.02
2022-09-06T22:38:57.726Z,13.10
2022-09-06T22:41:26.412Z,14.60
2022-09-06T22:43:53.416Z,14.90
2022-09-06T22:46:20.231Z,15.63
2022-09-06T22:48:46.812Z,15.15
2022-09-06T22:51:13.379Z,15.80
2022-09-06T22:53:39.801Z,17.15
2022-09-06T22:56:06.552Z,18.98
2022-09-06T22:58:35.133Z,20.20
2022-09-06T23:01:12.989Z,18.02
2022-09-06T23:03:39.722Z,20.08
2022-09-06T23:06:06.468Z,20.98
2022-09-06T23:08:35.304Z,19.88
2022-09-06T23:11:12.987Z,20.50
2022-09-06T23:13:43.477Z,18.88
2022-09-06T23:19:13.964Z,16.95
2022-09-06T23:21:40.446Z,19.70
2022-09-06T23:24:07.265Z,18.52
2022-09-06T23:26:33.796Z,19.08
2022-09-06T23:29:00.296Z,19.52
2022-09-06T23:31:29.380Z,19.17
2022-09-06T23:33:57.342Z,19.88
2022-09-06T23:36:24.610Z,18.20
2022-09-06T23:38:51.256Z,20.98
2022-09-06T23:41:17.826Z,19.13
2022-09-06T23:43:44.462Z,20.15
2022-09-06T23:46:13.012Z,20.85
2022-09-06T23:48:39.500Z,19.80
2022-09-06T23:51:06.001Z,21.42
2022-09-06T23:53:33.056Z,20.38
2022-09-06T23:55:59.638Z,19.52
2022-09-06T23:58:26.168Z,21.67
